Time;durP1;ratioP1;P1;durP2;ratioP2;P2;SDS_P1;SDS_P2;PMS_P1;PMS_P2;Temp;Humidity;BMP_temperature;BMP_pressure;BME280_temperature;BME280_humidity;BME280_pressure;Samples;Min_cycle;Max_cycle;Signal;HPM_P1;HPM_P2
2021/12/22 00:00:57;;;;;;;7.53;3.50;;;15.10;77.20;;;;;;1989325;28;20221;-76
2021/12/22 00:01:57;;;;;;;7.83;3.70;;;15.10;77.30;;;;;;1989491;28;20254;-76
2021/12/22 00:02:55;;;;;;;4.35;3.10;;;15.10;77.20;;;;;;1988781;28;20327;-75
2021/12/22 00:03:55;;;;;;;5.37;3.17;;;15.10;77.40;;;;;;1988842;28;20251;-76
2021/12/22 00:04:54;;;;;;;4.72;3.65;;;15.10;77.20;;;;;;1989397;28;20327;-76
2021/12/22 00:05:53;;;;;;;9.52;3.83;;;15.10;77.30;;;;;;1989047;28;20171;-76
2021/12/22 00:06:53;;;;;;;3.87;3.07;;;15.10;77.30;;;;;;1989326;28;20261;-76
2021/12/22 00:07:52;;;;;;;5.72;3.67;;;15.10;77.30;;;;;;1989349;28;20163;-75
2021/12/22 00:08:51;;;;;;;10.15;2.80;;;15.10;77.40;;;;;;1988627;28;20182;-76
2021/12/22 00:09:49;;;;;;;6.60;3.03;;;15.10;77.80;;;;;;1988821;28;20182;-77
2021/12/22 00:10:49;;;;;;;4.47;3.20;;;15.10;78.30;;;;;;1989190;28;20178;-76
2021/12/22 00:11:49;;;;;;;6.88;2.83;;;15.10;78.50;;;;;;1989334;28;20166;-75
2021/12/22 00:12:49;;;;;;;5.47;3.08;;;15.10;78.40;;;;;;1988626;28;20651;-76
2021/12/22 00:13:47;;;;;;;5.97;3.40;;;15.10;78.50;;;;;;1988753;28;20245;-75
2021/12/22 00:14:46;;;;;;;6.10;3.50;;;15.10;78.40;;;;;;1989311;28;20250;-76
2021/12/22 00:15:44;;;;;;;10.23;3.57;;;15.10;78.90;;;;;;1989256;28;20166;-75
2021/12/22 00:16:43;;;;;;;7.90;3.63;;;15.10;78.90;;;;;;1989136;28;20214;-76
2021/12/22 00:17:41;;;;;;;4.00;3.23;;;15.10;78.90;;;;;;1989161;28;20167;-75
2021/12/22 00:18:40;;;;;;;4.67;3.33;;;15.10;79.00;;;;;;1989383;28;20296;-76
2021/12/22 00:19:39;;;;;;;4.37;3.00;;;15.10;78.70;;;;;;1988573;28;20175;-75
2021/12/22 00:20:37;;;;;;;4.80;3.03;;;15.10;78.60;;;;;;1988671;28;20547;-76
2021/12/22 00:21:36;;;;;;;4.70;2.93;;;15.10;78.30;;;;;;1989213;28;20166;-76
2021/12/22 00:22:34;;;;;;;9.73;3.67;;;15.20;78.70;;;;;;1989202;28;20174;-76
2021/12/22 00:23:33;;;;;;;4.70;3.30;;;15.00;78.60;;;;;;1989335;28;20311;-75
2021/12/22 00:24:34;;;;;;;4.80;2.80;;;15.10;78.60;;;;;;1989307;28;20174;-75
2021/12/22 00:25:32;;;;;;;4.18;3.22;;;15.00;78.60;;;;;;1989268;28;20170;-75
2021/12/22 00:26:31;;;;;;;5.73;3.27;;;15.10;78.60;;;;;;1989272;28;20709;-75
2021/12/22 00:27:30;;;;;;;4.23;2.63;;;15.10;78.80;;;;;;1989330;28;20167;-76
2021/12/22 00:28:28;;;;;;;4.30;3.03;;;15.00;78.90;;;;;;1988487;28;20269;-75
2021/12/22 00:29:27;;;;;;;5.30;3.30;;;15.10;79.10;;;;;;1988435;28;20166;-75
2021/12/22 00:30:26;;;;;;;5.80;3.70;;;15.00;79.10;;;;;;1989159;28;20261;-75
2021/12/22 00:31:25;;;;;;;5.32;2.83;;;15.00;79.10;;;;;;1988333;28;20617;-75
2021/12/22 00:32:26;;;;;;;4.73;3.27;;;15.10;79.10;;;;;;1980894;28;20183;-75
2021/12/22 00:33:27;;;;;;;5.82;3.22;;;15.10;78.90;;;;;;1988439;28;20178;-76
2021/12/22 00:34:27;;;;;;;5.95;3.00;;;15.00;78.50;;;;;;1989235;28;20190;-75
2021/12/22 00:35:29;;;;;;;3.80;2.45;;;15.00;78.70;;;;;;1989138;28;20171;-75
2021/12/22 00:36:28;;;;;;;3.97;2.42;;;15.00;78.60;;;;;;1988317;28;20202;-75
2021/12/22 00:37:28;;;;;;;5.50;3.20;;;15.00;78.50;;;;;;1988651;28;20646;-75
2021/12/22 00:38:27;;;;;;;3.80;3.10;;;15.30;78.90;;;;;;1989002;28;20232;-75
2021/12/22 00:39:25;;;;;;;4.67;3.00;;;15.00;78.80;;;;;;1989005;28;20275;-75
2021/12/22 00:40:24;;;;;;;6.93;3.43;;;15.00;78.60;;;;;;1988934;28;20233;-75
2021/12/22 00:41:22;;;;;;;6.53;3.13;;;15.00;78.80;;;;;;1989335;28;20170;-76
2021/12/22 00:42:21;;;;;;;4.90;2.80;;;15.00;78.70;;;;;;1989099;28;20656;-75
2021/12/22 00:43:20;;;;;;;4.72;2.65;;;15.00;78.60;;;;;;1989367;28;20178;-75
2021/12/22 00:44:18;;;;;;;5.83;4.23;;;15.00;78.60;;;;;;1989212;28;20189;-75
2021/12/22 00:45:18;;;;;;;5.67;2.80;;;15.00;78.60;;;;;;1989014;28;20182;-75
2021/12/22 00:46:16;;;;;;;4.47;2.63;;;15.00;78.60;;;;;;1988913;28;20225;-75
2021/12/22 00:47:15;;;;;;;7.27;3.00;;;15.30;79.00;;;;;;1989058;28;20265;-75
2021/12/22 00:48:14;;;;;;;7.57;2.80;;;15.00;78.70;;;;;;1989054;28;20630;-75
2021/12/22 00:49:12;;;;;;;4.27;2.90;;;15.00;78.40;;;;;;1988959;28;20425;-76
2021/12/22 00:50:11;;;;;;;6.47;2.67;;;15.00;78.60;;;;;;1988973;28;20178;-75
2021/12/22 00:51:09;;;;;;;4.90;3.17;;;15.10;78.70;;;;;;1989034;28;20180;-76
2021/12/22 00:52:08;;;;;;;2.90;2.30;;;15.00;78.80;;;;;;1988201;28;20724;-75
2021/12/22 00:53:06;;;;;;;5.97;3.43;;;15.00;78.90;;;;;;1988113;28;20566;-76
2021/12/22 00:54:05;;;;;;;4.73;3.30;;;14.90;78.90;;;;;;1987743;28;20178;-75
2021/12/22 00:55:04;;;;;;;5.10;3.00;;;15.00;79.00;;;;;;1988557;28;20178;-75
2021/12/22 00:56:04;;;;;;;5.10;3.00;;;14.90;78.80;;;;;;1988860;28;20185;-77
2021/12/22 00:57:05;;;;;;;5.10;2.80;;;14.90;78.30;;;;;;1988925;28;20591;-75
2021/12/22 00:58:04;;;;;;;5.30;2.90;;;14.90;78.50;;;;;;1989080;28;20310;-75
2021/12/22 00:59:03;;;;;;;3.50;3.05;;;14.90;78.30;;;;;;1988941;28;20174;-75
2021/12/22 01:00:07;;;;;;;3.43;2.43;;;15.00;78.40;;;;;;1988964;28;20669;-76
2021/12/22 01:01:06;;;;;;;5.85;2.72;;;14.90;78.20;;;;;;1989227;28;20482;-76
2021/12/22 01:02:07;;;;;;;4.47;3.00;;;14.90;78.50;;;;;;1988968;28;20246;-76
2021/12/22 01:03:06;;;;;;;4.53;2.70;;;14.90;78.20;;;;;;1989064;28;20198;-75
2021/12/22 01:04:05;;;;;;;6.03;2.67;;;14.90;78.60;;;;;;1988753;28;20186;-75
2021/12/22 01:05:04;;;;;;;5.70;3.10;;;14.90;78.70;;;;;;1988855;28;20438;-75
2021/12/22 01:06:03;;;;;;;6.40;2.90;;;14.90;78.60;;;;;;1988936;28;20504;-76
2021/12/22 01:07:03;;;;;;;3.90;2.88;;;14.90;78.80;;;;;;1988284;28;20187;-75
2021/12/22 01:08:01;;;;;;;4.03;3.15;;;14.90;78.10;;;;;;1988494;28;20261;-76
2021/12/22 01:09:00;;;;;;;6.10;3.20;;;14.90;78.50;;;;;;1988942;28;20174;-75
2021/12/22 01:09:58;;;;;;;4.77;2.97;;;15.00;78.60;;;;;;1989000;28;20209;-76
2021/12/22 01:10:57;;;;;;;3.30;2.57;;;15.00;78.80;;;;;;1988912;28;20661;-75
2021/12/22 01:11:56;;;;;;;6.70;2.60;;;14.90;78.40;;;;;;1988265;28;20171;-75
2021/12/22 01:12:57;;;;;;;7.00;3.40;;;14.90;78.10;;;;;;1988292;28;20174;-75
2021/12/22 01:13:56;;;;;;;5.75;2.78;;;14.90;78.60;;;;;;1988832;28;20492;-75
2021/12/22 01:14:56;;;;;;;3.15;2.67;;;14.90;78.50;;;;;;1988781;28;20216;-76
2021/12/22 01:15:55;;;;;;;4.47;2.60;;;14.90;78.60;;;;;;1988692;28;20198;-75
2021/12/22 01:16:59;;;;;;;4.47;2.80;;;15.10;78.80;;;;;;1988621;28;20252;-75
2021/12/22 01:18:07;;;;;;;4.38;2.75;;;14.90;78.60;;;;;;1989529;28;20159;-75
2021/12/22 01:19:12;;;;;;;3.80;2.67;;;14.90;78.70;;;;;;1990564;28;20297;-75
2021/12/22 01:20:28;;;;;;;9.32;3.28;;;14.90;78.50;;;;;;1990543;28;20190;-75
2021/12/22 01:21:38;;;;;;;3.22;2.65;;;14.90;78.80;;;;;;1990451;28;20165;-75
2021/12/22 01:23:22;;;;;;;3.92;2.45;;;14.90;78.60;;;;;;1990532;28;20190;-75
2021/12/22 01:24:10;;;;;;;4.43;2.95;;;14.90;78.80;;;;;;1986662;28;20626;-75
2021/12/22 01:25:12;;;;;;;4.10;2.85;;;14.80;78.50;;;;;;1990569;28;20560;-75
2021/12/22 01:26:10;;;;;;;4.03;3.00;;;14.80;78.70;;;;;;1990339;28;20182;-75
2021/12/22 01:27:10;;;;;;;5.73;2.60;;;14.80;78.60;;;;;;1990399;28;20563;-76
2021/12/22 01:28:08;;;;;;;4.93;2.40;;;14.80;78.80;;;;;;1990257;28;20176;-76
2021/12/22 01:29:07;;;;;;;6.10;2.97;;;14.80;78.70;;;;;;1989613;28;20193;-76
2021/12/22 01:30:11;;;;;;;4.60;2.93;;;14.90;78.80;;;;;;1989765;28;20407;-75
2021/12/22 01:31:15;;;;;;;6.53;3.17;;;14.90;78.90;;;;;;1990547;28;20179;-74
2021/12/22 01:32:15;;;;;;;4.35;2.30;;;14.80;78.80;;;;;;1989818;28;20198;-75
2021/12/22 01:33:15;;;;;;;3.17;2.67;;;14.80;78.60;;;;;;1989886;28;20182;-76
2021/12/22 01:34:14;;;;;;;4.75;2.85;;;14.90;79.00;;;;;;1990335;28;20540;-76
2021/12/22 01:35:14;;;;;;;5.70;2.70;;;14.80;78.70;;;;;;1990405;28;20182;-75
2021/12/22 01:36:13;;;;;;;4.05;2.88;;;14.80;78.60;;;;;;1989581;28;20194;-75
2021/12/22 01:37:12;;;;;;;5.70;2.90;;;14.80;78.80;;;;;;1989717;28;20575;-75
2021/12/22 01:38:11;;;;;;;5.57;2.70;;;14.80;78.30;;;;;;1990455;28;20696;-75
2021/12/22 01:39:09;;;;;;;3.77;2.57;;;14.80;79.40;;;;;;1990280;28;20189;-75
2021/12/22 01:40:10;;;;;;;7.10;2.80;;;14.80;78.40;;;;;;1990140;28;20233;-75
2021/12/22 01:41:09;;;;;;;3.00;2.40;;;14.80;78.70;;;;;;1990199;28;20189;-75
2021/12/22 01:42:07;;;;;;;4.57;3.20;;;14.80;78.60;;;;;;1990344;28;20178;-74
2021/12/22 01:43:08;;;;;;;3.70;2.37;;;14.80;78.60;;;;;;1990382;28;20170;-76
2021/12/22 01:44:09;;;;;;;4.22;2.97;;;15.00;78.80;;;;;;1990504;28;20523;-75
2021/12/22 01:49:09;;;;;;;6.45;2.88;;;14.70;78.10;;;;;;1990426;28;20199;-74
2021/12/22 01:49:14;;;;;;;4.13;2.88;;;14.70;78.70;;;;;;1990360;28;20167;-75
2021/12/22 01:50:28;;;;;;;4.18;2.70;;;14.70;78.80;;;;;;1990191;28;20198;-74
2021/12/22 01:51:35;;;;;;;4.13;2.70;;;14.70;78.40;;;;;;1990301;28;20174;-74
2021/12/22 01:52:33;;;;;;;4.55;2.67;;;14.70;79.20;;;;;;1989467;28;20206;-76
2021/12/22 01:53:45;;;;;;;4.87;2.60;;;14.80;78.90;;;;;;1989586;28;20543;-74
2021/12/22 01:55:04;;;;;;;6.45;2.88;;;14.70;78.70;;;;;;1989743;28;20210;-75
2021/12/22 01:56:20;;;;;;;3.13;2.45;;;14.80;78.80;;;;;;1990186;28;20529;-74
2021/12/22 01:57:19;;;;;;;6.72;2.28;;;14.80;78.60;;;;;;1989494;28;20194;-74
2021/12/22 01:58:31;;;;;;;3.20;2.30;;;14.70;78.70;;;;;;1989667;28;20637;-74
2021/12/22 01:59:30;;;;;;;4.00;2.72;;;14.70;78.60;;;;;;1990036;28;20221;-75
2021/12/22 02:00:29;;;;;;;3.03;2.30;;;14.70;78.90;;;;;;1990038;28;20565;-75
2021/12/22 02:01:30;;;;;;;5.72;3.10;;;14.70;78.70;;;;;;1990430;28;20174;-74
2021/12/22 02:02:28;;;;;;;2.70;2.50;;;14.70;78.50;;;;;;1991038;28;20174;-75
2021/12/22 02:03:27;;;;;;;4.60;3.13;;;14.70;78.70;;;;;;1991064;28;20174;-75
2021/12/22 02:04:26;;;;;;;4.27;2.70;;;14.70;78.80;;;;;;1990982;28;20174;-75
2021/12/22 02:05:24;;;;;;;3.00;2.70;;;14.30;78.70;;;;;;1990937;28;20190;-75
2021/12/22 02:06:23;;;;;;;3.90;2.63;;;14.90;79.20;;;;;;1991139;28;20194;-74
2021/12/22 02:07:21;;;;;;;6.00;2.87;;;14.70;78.80;;;;;;1991030;28;20174;-75
2021/12/22 02:08:20;;;;;;;3.53;2.40;;;14.70;78.50;;;;;;1990812;28;20645;-75
2021/12/22 02:10:40;;;;;;;4.72;2.55;;;14.70;78.70;;;;;;1990147;28;20158;-74
2021/12/22 02:11:39;;;;;;;4.55;3.10;;;14.80;78.60;;;;;;1989511;28;20315;-75
2021/12/22 02:12:44;;;;;;;2.90;2.60;;;14.70;78.40;;;;;;1989737;28;20696;-76
2021/12/22 02:13:48;;;;;;;3.17;2.85;;;14.80;78.40;;;;;;1989483;28;20170;-74
2021/12/22 02:14:47;;;;;;;3.90;2.67;;;14.70;78.40;;;;;;1989472;28;20677;-75
2021/12/22 02:15:47;;;;;;;4.13;2.90;;;14.60;78.90;;;;;;1990102;28;20211;-75
2021/12/22 02:16:45;;;;;;;3.42;2.25;;;14.60;78.90;;;;;;1989911;28;20256;-75
2021/12/22 02:17:44;;;;;;;3.70;2.93;;;14.60;78.60;;;;;;1990006;28;20309;-76
2021/12/22 02:18:50;;;;;;;3.97;2.57;;;14.60;78.30;;;;;;1990103;28;20578;-75
2021/12/22 02:19:49;;;;;;;3.40;2.67;;;14.60;78.90;;;;;;1989919;28;20263;-75
2021/12/22 02:20:49;;;;;;;3.70;2.83;;;14.70;78.90;;;;;;1990077;28;20186;-75
2021/12/22 02:21:53;;;;;;;6.05;2.85;;;14.60;78.90;;;;;;1989991;28;20476;-75
2021/12/22 02:22:54;;;;;;;3.88;2.70;;;14.60;78.60;;;;;;1990070;28;20163;-76
2021/12/22 02:23:53;;;;;;;6.35;2.88;;;14.60;78.70;;;;;;1990051;28;20220;-75
2021/12/22 02:24:58;;;;;;;7.43;2.63;;;14.60;78.60;;;;;;1989982;28;20225;-76
2021/12/22 02:25:58;;;;;;;3.88;2.97;;;14.60;79.00;;;;;;1990035;28;20331;-75
2021/12/22 02:27:07;;;;;;;4.47;2.65;;;14.60;78.80;;;;;;1989168;28;20587;-74
2021/12/22 02:28:14;;;;;;;6.88;3.25;;;14.60;79.10;;;;;;1989500;28;20176;-74
2021/12/22 02:29:21;;;;;;;3.65;2.65;;;14.60;78.60;;;;;;1989901;28;20163;-76
2021/12/22 02:30:26;;;;;;;5.07;3.10;;;14.60;78.60;;;;;;1989961;28;20528;-74
2021/12/22 02:31:25;;;;;;;3.83;2.83;;;14.50;78.60;;;;;;1989181;28;20594;-75
2021/12/22 02:33:08;;;;;;;4.67;2.73;;;14.50;78.50;;;;;;1989537;28;20234;-76
2021/12/22 02:33:46;;;;;;;3.53;2.50;;;14.60;78.90;;;;;;1989691;28;20529;-75
2021/12/22 02:34:47;;;;;;;4.20;2.63;;;14.50;78.70;;;;;;1989943;28;20639;-76
2021/12/22 02:35:55;;;;;;;4.70;2.70;;;14.50;78.50;;;;;;1990000;28;20183;-75
2021/12/22 02:36:59;;;;;;;3.90;2.75;;;14.50;78.40;;;;;;1989875;28;20194;-76
2021/12/22 02:37:58;;;;;;;3.40;2.75;;;14.50;78.50;;;;;;1989266;28;20170;-76
2021/12/22 02:39:00;;;;;;;5.22;3.35;;;14.50;78.40;;;;;;1989380;28;20182;-75
2021/12/22 02:40:09;;;;;;;5.13;2.97;;;14.50;78.60;;;;;;1989865;28;20178;-76
2021/12/22 02:41:11;;;;;;;4.10;3.20;;;14.50;79.10;;;;;;1990050;28;20162;-75
2021/12/22 02:42:11;;;;;;;5.35;3.22;;;14.50;78.70;;;;;;1989881;28;20166;-76
2021/12/22 02:43:10;;;;;;;6.50;3.47;;;14.50;78.90;;;;;;1989146;28;20182;-76
2021/12/22 02:44:11;;;;;;;3.70;2.47;;;14.50;79.00;;;;;;1989419;28;20194;-75
2021/12/22 02:45:13;;;;;;;5.10;3.20;;;14.50;78.80;;;;;;1990068;28;20538;-75
2021/12/22 02:46:14;;;;;;;6.13;2.80;;;14.50;79.10;;;;;;1989751;28;20201;-75
2021/12/22 02:47:22;;;;;;;4.35;2.92;;;14.50;78.70;;;;;;1989333;28;20660;-75
2021/12/22 02:48:21;;;;;;;6.35;3.40;;;14.50;78.70;;;;;;1989113;28;20677;-76
2021/12/22 02:49:19;;;;;;;2.70;2.07;;;14.50;78.90;;;;;;1989336;28;20259;-75
2021/12/22 02:50:18;;;;;;;7.10;3.00;;;14.50;79.10;;;;;;1989852;28;20197;-75
2021/12/22 02:51:17;;;;;;;3.37;2.40;;;14.50;78.90;;;;;;1989896;28;20178;-76
2021/12/22 02:52:17;;;;;;;11.80;2.83;;;14.50;78.90;;;;;;1990070;28;20198;-75
2021/12/22 02:53:16;;;;;;;5.05;3.28;;;14.50;78.80;;;;;;1990025;28;20598;-75
2021/12/22 02:54:20;;;;;;;3.67;2.80;;;14.60;78.80;;;;;;1989984;28;20178;-75
2021/12/22 02:55:26;;;;;;;4.47;3.10;;;14.50;78.60;;;;;;1989892;28;20167;-75
2021/12/22 02:57:40;;;;;;;4.25;2.55;;;14.50;78.60;;;;;;1990103;28;20254;-76
2021/12/22 02:58:52;;;;;;;2.75;2.50;;;14.50;78.60;;;;;;1989854;28;20166;-76
2021/12/22 03:00:26;;;;;;;4.25;3.15;;;14.50;78.80;;;;;;1989767;28;20159;-76
2021/12/22 03:03:01;;;;;;;3.60;2.65;;;14.50;78.90;;;;;;1989948;28;20158;-75
2021/12/22 03:04:10;;;;;;;4.90;2.90;;;14.50;78.60;;;;;;1989975;28;20233;-76
2021/12/22 03:05:09;;;;;;;4.80;3.13;;;14.40;78.30;;;;;;1989965;28;20209;-76
2021/12/22 03:06:10;;;;;;;4.10;2.93;;;14.40;78.50;;;;;;1989731;28;20175;-75
2021/12/22 03:07:15;;;;;;;4.18;2.70;;;14.50;78.60;;;;;;1989199;28;20852;-75
2021/12/22 03:08:14;;;;;;;3.42;2.70;;;14.50;78.40;;;;;;1989242;28;20226;-75
2021/12/22 03:09:24;;;;;;;6.23;3.03;;;14.60;78.40;;;;;;1989800;28;20178;-75
2021/12/22 03:10:23;;;;;;;3.35;2.75;;;14.60;78.70;;;;;;1989933;28;20257;-76
2021/12/22 03:11:22;;;;;;;3.40;2.50;;;14.60;78.80;;;;;;1989993;28;20189;-76
2021/12/22 03:12:22;;;;;;;5.90;3.10;;;14.60;78.40;;;;;;1989780;28;20178;-76
2021/12/22 03:13:22;;;;;;;3.08;2.40;;;14.50;78.10;;;;;;1989589;28;20167;-75
2021/12/22 03:14:22;;;;;;;4.72;2.83;;;14.60;78.20;;;;;;1989818;28;20184;-75
2021/12/22 03:15:23;;;;;;;3.50;3.10;;;14.60;78.30;;;;;;1989644;28;20186;-75
2021/12/22 03:16:21;;;;;;;5.72;2.80;;;14.60;78.10;;;;;;1989779;28;20294;-75
2021/12/22 03:17:20;;;;;;;5.67;3.10;;;14.60;78.00;;;;;;1989873;28;20185;-74
2021/12/22 03:18:18;;;;;;;5.80;3.10;;;14.90;78.00;;;;;;1989773;28;20179;-75
2021/12/22 03:19:19;;;;;;;4.73;2.43;;;14.60;77.40;;;;;;1989871;28;20178;-76
2021/12/22 03:20:18;;;;;;;5.13;3.42;;;14.60;77.40;;;;;;1989855;28;20293;-75
2021/12/22 03:21:20;;;;;;;5.93;3.30;;;14.60;77.70;;;;;;1989867;28;20181;-76
2021/12/22 03:22:20;;;;;;;6.38;2.80;;;14.60;77.30;;;;;;1989580;28;20702;-77
2021/12/22 03:23:20;;;;;;;4.30;2.78;;;14.50;77.30;;;;;;1989688;28;20241;-75
2021/12/22 03:24:21;;;;;;;5.55;3.47;;;14.60;77.50;;;;;;1989672;28;20305;-76
2021/12/22 03:25:25;;;;;;;4.40;3.00;;;14.50;77.00;;;;;;1989520;28;20678;-75
2021/12/22 03:26:25;;;;;;;4.80;2.80;;;14.80;77.30;;;;;;1989662;28;20218;-75
2021/12/22 03:27:24;;;;;;;4.85;3.30;;;14.50;77.30;;;;;;1989299;28;20191;-76
2021/12/22 03:28:23;;;;;;;5.70;3.47;;;14.80;77.60;;;;;;1988990;28;20171;-75
2021/12/22 03:29:22;;;;;;;3.70;3.23;;;14.50;77.00;;;;;;1988879;28;20204;-75
2021/12/22 03:30:23;;;;;;;4.43;3.17;;;14.50;76.90;;;;;;1989040;28;20701;-75
2021/12/22 03:31:22;;;;;;;6.43;2.80;;;14.50;77.00;;;;;;1989437;28;20183;-76
2021/12/22 03:32:20;;;;;;;5.70;2.90;;;14.50;77.00;;;;;;1989700;28;20218;-75
2021/12/22 03:33:19;;;;;;;4.20;2.70;;;14.50;77.20;;;;;;1989599;28;20697;-76
2021/12/22 03:34:18;;;;;;;5.77;3.80;;;14.50;76.80;;;;;;1989519;28;20587;-75
2021/12/22 03:35:19;;;;;;;5.97;3.42;;;14.50;77.00;;;;;;1989634;28;20170;-76
2021/12/22 03:36:18;;;;;;;3.58;3.28;;;14.50;76.50;;;;;;1989378;28;20205;-76
2021/12/22 03:37:16;;;;;;;3.77;3.00;;;14.50;77.80;;;;;;1989422;28;20201;-76
2021/12/22 03:38:15;;;;;;;3.80;2.90;;;14.30;77.00;;;;;;1989472;28;20269;-75
2021/12/22 03:39:14;;;;;;;4.00;3.13;;;14.50;77.30;;;;;;1989474;28;20178;-75
2021/12/22 03:40:13;;;;;;;3.50;3.17;;;14.50;77.00;;;;;;1989130;28;20603;-75
2021/12/22 03:41:11;;;;;;;5.60;3.30;;;14.50;77.00;;;;;;1989124;28;20269;-76
2021/12/22 03:42:10;;;;;;;4.63;3.00;;;14.50;77.20;;;;;;1988757;28;20186;-75
2021/12/22 03:43:09;;;;;;;4.03;3.17;;;14.50;77.10;;;;;;1988961;28;20649;-75
2021/12/22 03:44:08;;;;;;;5.93;3.43;;;14.50;77.30;;;;;;1989318;28;20189;-76
2021/12/22 03:45:07;;;;;;;4.70;3.38;;;14.50;77.00;;;;;;1989373;28;20270;-76
2021/12/22 03:46:07;;;;;;;4.55;2.60;;;14.50;76.90;;;;;;1989610;28;20329;-76
2021/12/22 03:47:06;;;;;;;4.88;3.20;;;14.50;76.80;;;;;;1989460;28;20467;-75
2021/12/22 03:48:05;;;;;;;3.43;2.90;;;14.60;76.90;;;;;;1989412;28;20175;-76
2021/12/22 03:49:06;;;;;;;3.63;2.90;;;14.60;77.30;;;;;;1989344;28;20616;-76
2021/12/22 03:50:06;;;;;;;8.10;3.13;;;14.50;76.90;;;;;;1989252;28;20627;-75
2021/12/22 03:51:04;;;;;;;4.57;2.70;;;14.50;76.90;;;;;;1989383;28;20317;-76
2021/12/22 03:52:04;;;;;;;5.20;2.90;;;14.50;77.10;;;;;;1989408;28;20170;-75
2021/12/22 03:53:03;;;;;;;4.65;3.50;;;14.50;76.90;;;;;;1989372;28;20201;-76
2021/12/22 03:54:03;;;;;;;3.77;3.00;;;14.60;77.00;;;;;;1989505;28;20183;-75
2021/12/22 03:55:02;;;;;;;3.33;2.65;;;14.60;76.70;;;;;;1989473;28;20434;-75
2021/12/22 03:56:01;;;;;;;4.50;2.70;;;14.60;76.80;;;;;;1989490;28;20183;-76
2021/12/22 03:56:59;;;;;;;5.17;2.70;;;14.60;76.70;;;;;;1989435;28;20175;-76
2021/12/22 03:57:58;;;;;;;9.60;3.00;;;14.60;76.80;;;;;;1989325;28;20491;-75
2021/12/22 03:58:56;;;;;;;5.10;3.37;;;14.60;76.60;;;;;;1989507;28;20181;-76
2021/12/22 03:59:59;;;;;;;4.93;2.90;;;14.60;76.60;;;;;;1988637;28;20189;-75
2021/12/22 04:00:58;;;;;;;7.50;3.90;;;14.60;76.80;;;;;;1988736;28;20259;-76
2021/12/22 04:01:56;;;;;;;4.30;2.40;;;14.60;76.80;;;;;;1989089;28;20229;-75
2021/12/22 04:02:55;;;;;;;3.90;2.60;;;14.60;76.80;;;;;;1989278;28;20181;-75
2021/12/22 04:03:58;;;;;;;7.00;3.25;;;14.60;76.90;;;;;;1989358;28;20257;-76
2021/12/22 04:04:57;;;;;;;3.75;3.00;;;14.60;76.70;;;;;;1989332;28;20246;-74
2021/12/22 04:05:56;;;;;;;5.63;3.70;;;14.60;76.80;;;;;;1989355;28;20250;-75
2021/12/22 04:06:54;;;;;;;5.23;2.90;;;14.60;76.90;;;;;;1989317;28;20558;-74
2021/12/22 04:07:54;;;;;;;5.17;2.80;;;14.60;77.00;;;;;;1989447;28;20170;-74
2021/12/22 04:08:52;;;;;;;3.78;2.65;;;14.60;76.70;;;;;;1988595;28;20198;-76
2021/12/22 04:09:53;;;;;;;4.97;2.80;;;14.60;76.90;;;;;;1988777;28;20177;-74
2021/12/22 04:10:52;;;;;;;4.13;2.80;;;14.60;76.80;;;;;;1989245;28;20174;-75
2021/12/22 04:11:50;;;;;;;4.83;3.00;;;14.60;76.70;;;;;;1989263;28;20178;-76
2021/12/22 04:12:52;;;;;;;6.23;2.70;;;14.70;76.70;;;;;;1989165;28;20425;-76
2021/12/22 04:13:50;;;;;;;4.00;2.58;;;14.60;76.50;;;;;;1989082;28;20163;-74
2021/12/22 04:14:49;;;;;;;4.23;2.90;;;14.60;76.80;;;;;;1989230;28;20175;-75
2021/12/22 04:15:48;;;;;;;3.10;2.57;;;14.60;76.80;;;;;;1989296;28;20726;-75
2021/12/22 04:16:46;;;;;;;4.57;2.80;;;14.60;76.60;;;;;;1989269;28;20206;-74
2021/12/22 04:17:46;;;;;;;7.10;3.17;;;14.70;76.80;;;;;;1989379;28;20394;-75
2021/12/22 04:18:44;;;;;;;3.63;2.90;;;14.60;76.90;;;;;;1989190;28;20653;-76
2021/12/22 04:19:43;;;;;;;4.57;3.40;;;14.60;77.00;;;;;;1988571;28;20280;-75
2021/12/22 04:20:41;;;;;;;4.03;3.10;;;14.60;76.80;;;;;;1988812;28;20361;-75
2021/12/22 04:21:40;;;;;;;2.97;2.43;;;14.60;77.10;;;;;;1988104;28;20301;-74
2021/12/22 04:22:38;;;;;;;5.47;2.80;;;14.60;76.90;;;;;;1988785;28;20202;-75
2021/12/22 04:23:37;;;;;;;5.73;2.50;;;14.60;76.90;;;;;;1981067;29;20299;-74
2021/12/22 04:24:36;;;;;;;3.63;2.87;;;14.60;77.20;;;;;;1988259;28;20180;-75
2021/12/22 04:25:36;;;;;;;3.23;2.70;;;14.90;77.40;;;;;;1989109;28;20174;-74
2021/12/22 04:26:34;;;;;;;4.55;3.10;;;14.60;76.60;;;;;;1988974;28;20630;-74
2021/12/22 04:27:33;;;;;;;4.67;2.53;;;14.60;76.90;;;;;;1989300;28;20220;-74
2021/12/22 04:28:32;;;;;;;6.00;2.83;;;14.60;77.00;;;;;;1989190;28;20245;-75
2021/12/22 04:29:30;;;;;;;4.00;3.10;;;14.90;77.10;;;;;;1988487;28;20166;-75
2021/12/22 04:30:29;;;;;;;5.40;3.60;;;14.60;77.00;;;;;;1988633;28;20167;-74
2021/12/22 04:31:28;;;;;;;3.35;2.65;;;14.60;77.00;;;;;;1989164;28;20193;-75
2021/12/22 04:32:26;;;;;;;2.50;2.30;;;14.50;76.80;;;;;;1989310;28;20232;-75
2021/12/22 04:33:25;;;;;;;3.57;2.43;;;14.30;76.40;;;;;;1989178;28;20182;-74
2021/12/22 04:34:24;;;;;;;4.30;3.00;;;14.60;76.90;;;;;;1988515;28;20182;-75
2021/12/22 04:35:22;;;;;;;3.67;3.07;;;14.60;76.70;;;;;;1988808;28;20178;-76
2021/12/22 04:36:21;;;;;;;4.73;2.50;;;14.50;76.50;;;;;;1989133;28;20194;-76
2021/12/22 04:37:19;;;;;;;3.90;2.27;;;14.60;76.90;;;;;;1989085;28;20558;-74
2021/12/22 04:38:19;;;;;;;2.83;2.00;;;14.60;76.70;;;;;;1988949;28;20205;-75
2021/12/22 04:39:17;;;;;;;3.13;2.38;;;14.60;77.00;;;;;;1989143;28;20189;-75
2021/12/22 04:40:16;;;;;;;4.50;2.87;;;14.50;77.00;;;;;;1989044;28;20736;-75
2021/12/22 04:41:14;;;;;;;5.63;2.80;;;14.50;77.30;;;;;;1989001;28;20175;-75
2021/12/22 04:42:15;;;;;;;3.80;2.53;;;14.50;76.80;;;;;;1989173;28;20225;-75
2021/12/22 04:43:13;;;;;;;4.80;3.08;;;14.60;76.90;;;;;;1989274;28;20166;-76
2021/12/22 04:44:12;;;;;;;4.13;2.80;;;14.60;76.90;;;;;;1989185;28;20185;-74
2021/12/22 04:45:12;;;;;;;4.37;2.80;;;14.30;76.50;;;;;;1989038;28;20178;-75
2021/12/22 04:46:10;;;;;;;3.90;2.80;;;14.60;76.90;;;;;;1988920;28;20182;-76
2021/12/22 04:47:09;;;;;;;3.70;2.63;;;14.60;77.10;;;;;;1988979;28;20209;-76
2021/12/22 04:48:07;;;;;;;4.17;2.83;;;14.60;77.10;;;;;;1988976;28;20571;-75
2021/12/22 04:49:06;;;;;;;3.27;2.70;;;14.60;77.10;;;;;;1988847;28;20169;-74
2021/12/22 04:50:10;;;;;;;3.70;2.40;;;14.60;76.60;;;;;;1988748;28;20179;-76
2021/12/22 04:51:14;;;;;;;3.05;2.60;;;14.60;76.00;;;;;;1989001;28;20596;-76
2021/12/22 04:52:17;;;;;;;4.10;2.55;;;14.60;76.00;;;;;;1988975;28;20186;-75
2021/12/22 04:53:25;;;;;;;3.10;2.40;;;14.60;76.10;;;;;;1988859;28;20170;-77
2021/12/22 04:55:27;;;;;;;2.67;2.47;;;14.60;76.00;;;;;;1988871;28;20630;-77
2021/12/22 04:56:25;;;;;;;4.07;3.00;;;14.60;76.10;;;;;;1989193;28;20198;-74
2021/12/22 04:57:24;;;;;;;3.63;3.00;;;14.50;76.20;;;;;;1989104;28;20541;-74
2021/12/22 04:58:22;;;;;;;4.33;2.90;;;14.50;76.50;;;;;;1988943;28;20178;-75
2021/12/22 04:59:21;;;;;;;3.60;2.90;;;14.50;76.50;;;;;;1989003;28;20175;-76
2021/12/22 05:00:21;;;;;;;3.83;3.30;;;14.50;76.30;;;;;;1988679;28;20674;-76
2021/12/22 05:01:20;;;;;;;3.22;2.70;;;14.50;76.40;;;;;;1988296;28;20182;-74
2021/12/22 05:02:19;;;;;;;5.70;3.27;;;14.50;76.60;;;;;;1988551;28;20174;-75
2021/12/22 05:03:18;;;;;;;3.47;2.63;;;14.50;77.00;;;;;;1988291;28;20174;-74
2021/12/22 05:04:16;;;;;;;11.63;2.43;;;14.50;77.20;;;;;;1988589;28;20187;-75
2021/12/22 05:05:15;;;;;;;3.97;2.60;;;14.80;77.30;;;;;;1989279;28;20175;-75
2021/12/22 05:06:13;;;;;;;4.30;2.80;;;14.50;77.00;;;;;;1989339;28;20326;-75
2021/12/22 05:07:12;;;;;;;4.27;3.07;;;14.20;76.90;;;;;;1989274;28;20182;-74
2021/12/22 05:08:11;;;;;;;4.00;2.50;;;14.50;76.80;;;;;;1989319;28;20256;-75
2021/12/22 05:09:09;;;;;;;4.70;2.60;;;14.50;77.00;;;;;;1989259;28;20178;-74
2021/12/22 05:10:08;;;;;;;4.27;2.80;;;14.50;77.00;;;;;;1989790;28;20182;-75
2021/12/22 05:11:07;;;;;;;4.57;3.25;;;14.60;77.00;;;;;;1996390;28;20233;-72
2021/12/22 05:12:06;;;;;;;3.50;2.00;;;14.50;77.50;;;;;;1998737;28;20229;-72
2021/12/22 05:13:06;;;;;;;2.87;2.30;;;14.60;77.40;;;;;;1997963;28;20177;-72
2021/12/22 05:14:05;;;;;;;7.55;3.72;;;14.50;76.70;;;;;;1997949;28;20422;-74
2021/12/22 05:15:04;;;;;;;4.43;2.70;;;14.50;77.00;;;;;;1994341;28;20178;-75
2021/12/22 05:16:04;;;;;;;3.97;2.70;;;14.50;77.10;;;;;;1991391;28;20622;-75
2021/12/22 05:17:04;;;;;;;3.85;2.63;;;14.50;77.00;;;;;;1991052;28;20170;-74
2021/12/22 05:18:47;;;;;;;3.70;2.55;;;14.50;77.00;;;;;;1989329;28;20171;-75
2021/12/22 05:19:23;;;;;;;6.20;3.15;;;14.10;76.30;;;;;;1988713;28;20685;-76
2021/12/22 05:20:23;;;;;;;5.17;2.87;;;14.40;76.60;;;;;;1988875;28;20300;-75
2021/12/22 05:21:22;;;;;;;3.75;2.63;;;14.50;76.70;;;;;;1988833;28;20182;-75
2021/12/22 05:22:22;;;;;;;3.47;2.65;;;14.50;76.70;;;;;;1988851;28;20171;-76
2021/12/22 05:23:21;;;;;;;3.25;2.30;;;14.50;76.60;;;;;;1988977;28;20268;-76